createdAt,value
2022-09-03T00:02:09.547Z,99613.50
2022-09-03T00:04:46.822Z,99610.88
2022-09-03T00:07:22.494Z,99602.09
2022-09-03T00:09:58.331Z,99598.59
2022-09-03T00:12:34.174Z,99608.25
2022-09-03T00:15:08.309Z,99599.47
2022-09-03T00:17:41.787Z,99603.84
2022-09-03T00:20:18.954Z,99595.09
2022-09-03T00:22:52.870Z,99596.84
2022-09-03T00:25:28.527Z,99606.50
2022-09-03T00:28:03.982Z,99595.97
2022-09-03T00:30:34.936Z,99598.63
2022-09-03T00:33:10.746Z,99592.47
2022-09-03T00:35:48.014Z,99595.09
2022-09-03T00:38:17.464Z,99598.59
2022-09-03T00:41:11.262Z,99602.13
2022-09-03T00:43:58.975Z,99591.56
2022-09-03T00:46:40.982Z,99596.81
2022-09-03T00:49:33.178Z,99599.44
2022-09-03T00:52:14.025Z,99595.06
2022-09-03T00:54:51.198Z,99601.19
2022-09-03T01:00:11.648Z,99594.19
2022-09-03T01:02:58.909Z,99599.47
2022-09-03T01:05:45.540Z,99590.69
2022-09-03T01:08:37.241Z,99592.44
2022-09-03T01:11:21.723Z,99592.44
2022-09-03T01:14:00.338Z,99595.97
2022-09-03T01:16:41.631Z,99590.69
2022-09-03T01:19:40.209Z,99600.31
2022-09-03T01:22:46.209Z,99595.09
2022-09-03T01:25:19.108Z,99601.22
2022-09-03T01:28:03.304Z,99594.19
2022-09-03T01:30:39.364Z,99596.81
2022-09-03T01:33:15.804Z,99593.31
2022-09-03T01:35:51.442Z,99591.56
2022-09-03T01:38:32.173Z,99600.31
2022-09-03T01:41:30.545Z,99595.06
2022-09-03T01:44:12.009Z,99597.69
2022-09-03T01:46:45.844Z,99596.81
2022-09-03T01:49:22.869Z,99597.69
2022-09-03T01:52:03.993Z,99588.06
2022-09-03T01:54:53.406Z,99590.69
2022-09-03T01:57:47.759Z,99590.66
2022-09-03T02:00:20.900Z,99586.31
2022-09-03T02:02:52.976Z,99594.19
2022-09-03T02:05:24.915Z,99588.91
2022-09-03T02:08:01.421Z,99590.69
2022-09-03T02:10:36.066Z,99588.03
2022-09-03T02:13:11.821Z,99581.03
2022-09-03T02:15:46.366Z,99585.41
2022-09-03T02:18:21.058Z,99579.28
2022-09-03T02:20:51.496Z,99586.28
2022-09-03T02:23:27.547Z,99585.38
2022-09-03T02:26:00.930Z,99581.91
2022-09-03T02:28:32.539Z,99583.66
2022-09-03T02:31:04.098Z,99579.25
2022-09-03T02:33:37.597Z,99588.91
2022-09-03T02:36:10.232Z,99586.28
2022-09-03T02:38:40.745Z,99587.13
2022-09-03T02:41:15.592Z,99585.41
2022-09-03T02:43:50.887Z,99584.50
2022-09-03T02:46:27.082Z,99581.91
2022-09-03T02:48:57.286Z,99583.63
2022-09-03T02:51:27.146Z,99577.50
2022-09-03T02:53:57.277Z,99571.38
2022-09-03T02:56:28.031Z,99580.13
2022-09-03T02:58:58.377Z,99573.13
2022-09-03T03:01:29.273Z,99572.25
2022-09-03T03:04:01.920Z,99579.22
2022-09-03T03:06:33.700Z,99577.50
2022-09-03T03:09:05.934Z,99569.63
2022-09-03T03:11:37.202Z,99567.00
2022-09-03T03:14:10.831Z,99576.59
2022-09-03T03:16:42.413Z,99578.38
2022-09-03T03:19:11.315Z,99569.56
2022-09-03T03:21:40.863Z,99571.34
2022-09-03T03:24:10.410Z,99564.31
2022-09-03T03:26:40.211Z,99559.94
2022-09-03T03:29:09.187Z,99560.81
2022-09-03T03:31:44.842Z,99553.78
2022-09-03T03:34:14.418Z,99563.47
2022-09-03T03:36:43.236Z,99561.69
2022-09-03T03:39:12.379Z,99568.72
2022-09-03T03:41:41.513Z,99561.69
2022-09-03T03:44:10.653Z,99566.94
2022-09-03T03:46:42.321Z,99557.31
2022-09-03T03:49:12.993Z,99555.56
2022-09-03T03:51:44.251Z,99550.28
2022-09-03T03:54:17.449Z,99555.56
2022-09-03T03:56:55.360Z,99555.56
2022-09-03T03:59:26.326Z,99555.56
2022-09-03T04:01:57.253Z,99558.19
2022-09-03T04:04:27.627Z,99545.03
2022-09-03T04:06:57.372Z,99546.78
2022-09-03T04:09:26.509Z,99545.03
2022-09-03T04:11:58.085Z,99538.91
2022-09-03T04:14:28.563Z,99538.03
2022-09-03T04:16:58.175Z,99534.50
2022-09-03T04:19:29.707Z,99538.88
2022-09-03T04:22:00.116Z,99537.97
2022-09-03T04:24:28.962Z,99535.34
2022-09-03T04:26:59.266Z,99536.19
2022-09-03T04:29:31.231Z,99534.41
2022-09-03T04:32:17.388Z,99529.06
2022-09-03T04:34:50.998Z,99529.06
2022-09-03T04:37:20.823Z,99526.38
2022-09-03T04:39:49.643Z,99521.13
2022-09-03T04:42:18.629Z,99537.75
2022-09-03T04:44:47.708Z,99536.88
2022-09-03T04:47:16.665Z,99530.72
2022-09-03T04:49:47.762Z,99542.94
2022-09-03T04:52:16.563Z,99531.56
2022-09-03T04:54:45.365Z,99528.91
2022-09-03T04:57:14.308Z,99531.50
2022-09-03T04:59:43.690Z,99539.38
2022-09-03T05:02:13.049Z,99537.66
2022-09-03T05:04:41.912Z,99542.88
2022-09-03T05:07:12.357Z,99537.63
2022-09-03T05:09:41.084Z,99544.63
2022-09-03T05:12:11.109Z,99549.00
2022-09-03T05:14:39.993Z,99546.34
2022-09-03T05:17:08.771Z,99535.84
2022-09-03T05:19:37.938Z,99539.38
2022-09-03T05:22:08.113Z,99539.38
2022-09-03T05:24:38.690Z,99535.00
2022-09-03T05:27:07.854Z,99542.91
2022-09-03T05:29:36.581Z,99543.75
2022-09-03T05:32:06.876Z,99535.03
2022-09-03T05:34:36.136Z,99542.00
2022-09-03T05:37:04.955Z,99542.91
2022-09-03T05:39:33.735Z,99542.00
2022-09-03T05:42:04.307Z,99546.41
2022-09-03T05:44:33.477Z,99549.88
2022-09-03T05:47:02.320Z,99549.88
2022-09-03T05:49:34.062Z,99542.91
2022-09-03T05:52:03.315Z,99539.41
2022-09-03T05:54:32.187Z,99534.16
2022-09-03T05:57:01.368Z,99545.53
2022-09-03T05:59:32.434Z,99544.66
2022-09-03T06:02:01.319Z,99539.44
2022-09-03T06:04:30.564Z,99539.44
2022-09-03T06:06:59.359Z,99542.94
2022-09-03T06:09:28.244Z,99539.44
2022-09-03T06:11:57.252Z,99546.44
2022-09-03T06:14:25.996Z,99558.69
2022-09-03T06:16:57.079Z,99544.69
2022-09-03T06:19:25.838Z,99544.69
2022-09-03T06:21:55.377Z,99542.97
2022-09-03T06:24:28.127Z,99544.72
2022-09-03T06:26:57.850Z,99541.22
2022-09-03T06:29:27.114Z,99550.84
2022-09-03T06:31:57.269Z,99546.47
2022-09-03T06:34:26.862Z,99551.75
2022-09-03T06:36:55.492Z,99548.25
2022-09-03T06:39:25.542Z,99552.63
2022-09-03T06:41:55.142Z,99544.75
2022-09-03T06:44:30.862Z,99547.41
2022-09-03T06:47:01.594Z,99547.41
2022-09-03T06:49:31.916Z,99550.03
2022-09-03T06:52:00.683Z,99541.25
2022-09-03T06:54:29.612Z,99537.75
2022-09-03T06:56:58.627Z,99544.78
2022-09-03T06:59:28.426Z,99556.13
2022-09-03T07:02:03.003Z,99543.88
2022-09-03T07:04:34.927Z,99547.41
2022-09-03T07:07:04.851Z,99551.78
2022-09-03T07:09:36.356Z,99546.50
2022-09-03T07:12:06.778Z,99559.66
2022-09-03T07:14:35.543Z,99544.78
2022-09-03T07:17:04.302Z,99553.56
2022-09-03T07:19:34.625Z,99544.81
2022-09-03T07:22:03.248Z,99541.28
2022-09-03T07:24:31.899Z,99545.72
2022-09-03T07:27:00.543Z,99543.06
2022-09-03T07:29:29.430Z,99540.47
2022-09-03T07:31:58.027Z,99536.97
2022-09-03T07:34:27.137Z,99543.16
2022-09-03T07:36:57.441Z,99539.66
2022-09-03T07:39:26.365Z,99535.28
2022-09-03T07:41:58.401Z,99542.31
2022-09-03T07:44:30.047Z,99551.06
2022-09-03T07:46:58.727Z,99546.72
2022-09-03T07:49:27.825Z,99551.97
2022-09-03T07:51:59.012Z,99550.22
2022-09-03T07:54:27.947Z,99552.88
2022-09-03T07:56:56.897Z,99549.38
2022-09-03T07:59:26.480Z,99547.63
2022-09-03T08:01:55.157Z,99552.88
2022-09-03T08:04:24.092Z,99551.16
2022-09-03T08:06:55.950Z,99553.78
2022-09-03T08:09:26.138Z,99556.44
2022-09-03T08:11:54.740Z,99544.16
2022-09-03T08:14:23.366Z,99553.84
2022-09-03T08:16:52.062Z,99562.59
2022-09-03T08:19:20.991Z,99559.97
2022-09-03T08:21:49.721Z,99571.41
2022-09-03T08:24:21.351Z,99560.00
2022-09-03T08:26:52.735Z,99566.13
2022-09-03T08:29:22.899Z,99562.63
2022-09-03T08:31:52.102Z,99559.09
2022-09-03T08:34:21.498Z,99563.50
2022-09-03T08:36:50.539Z,99560.88
2022-09-03T08:39:19.298Z,99560.88
2022-09-03T08:42:11.966Z,99566.13
2022-09-03T08:44:47.379Z,99558.22
2022-09-03T08:47:22.965Z,99559.09
2022-09-03T08:49:57.821Z,99563.53
2022-09-03T08:52:35.039Z,99571.41
2022-09-03T08:55:28.141Z,99560.88
2022-09-03T08:58:04.841Z,99561.75
2022-09-03T09:00:50.064Z,99563.50
2022-09-03T09:03:55.065Z,99551.19
2022-09-03T09:06:35.989Z,99555.56
2022-09-03T09:09:18.596Z,99551.19
2022-09-03T09:12:00.057Z,99546.78
2022-09-03T09:14:39.609Z,99545.84
2022-09-03T09:17:28.498Z,99546.75
2022-09-03T09:20:08.414Z,99545.88
2022-09-03T09:22:43.812Z,99543.22
2022-09-03T09:25:21.366Z,99536.16
2022-09-03T09:27:56.370Z,99537.00
2022-09-03T09:30:27.587Z,99542.25
2022-09-03T09:32:56.364Z,99535.19
2022-09-03T09:35:27.232Z,99532.53
2022-09-03T09:38:00.323Z,99528.09
2022-09-03T09:40:33.924Z,99528.94
2022-09-03T09:43:12.688Z,99530.69
2022-09-03T09:45:45.301Z,99526.25
2022-09-03T09:48:26.464Z,99524.47
2022-09-03T09:51:07.291Z,99525.31
2022-09-03T09:53:36.375Z,99532.28
2022-09-03T09:56:05.799Z,99529.63
2022-09-03T09:58:36.264Z,99537.47
2022-09-03T10:01:14.130Z,99533.03
2022-09-03T10:03:55.281Z,99538.28
2022-09-03T10:06:43.967Z,99532.06
2022-09-03T10:09:16.038Z,99544.38
2022-09-03T10:11:48.016Z,99534.66
2022-09-03T10:14:24.312Z,99533.78
2022-09-03T10:17:03.806Z,99529.31
2022-09-03T10:20:04.428Z,99529.28
2022-09-03T10:22:56.925Z,99523.94
2022-09-03T10:25:49.230Z,99531.81
2022-09-03T10:28:50.155Z,99519.47
2022-09-03T10:32:19.029Z,99525.59
2022-09-03T10:35:12.439Z,99529.06
2022-09-03T10:38:11.650Z,99529.88
2022-09-03T10:41:26.018Z,99530.72
2022-09-03T10:44:42.713Z,99527.13
2022-09-03T10:48:30.798Z,99519.19
2022-09-03T10:51:04.737Z,99527.03
2022-09-03T10:53:53.582Z,99520.00
2022-09-03T10:56:34.019Z,99526.97
2022-09-03T10:59:28.524Z,99522.50
2022-09-03T11:02:24.717Z,99525.97
2022-09-03T11:05:09.827Z,99531.19
2022-09-03T11:07:48.263Z,99524.97
2022-09-03T11:10:33.321Z,99524.00
2022-09-03T11:13:13.365Z,99531.84
2022-09-03T11:15:50.938Z,99523.88
2022-09-03T11:18:28.143Z,99522.06
2022-09-03T11:21:07.642Z,99521.97
2022-09-03T11:23:49.640Z,99516.69
2022-09-03T11:26:32.120Z,99510.47
2022-09-03T11:29:08.337Z,99515.72
2022-09-03T11:31:57.981Z,99512.16
2022-09-03T11:34:33.942Z,99512.06
2022-09-03T11:37:23.185Z,99503.22
2022-09-03T11:40:00.457Z,99504.00
2022-09-03T11:42:37.424Z,99506.59
2022-09-03T11:45:37.539Z,99504.72
2022-09-03T11:48:30.747Z,99505.47
2022-09-03T11:51:04.663Z,99510.69
2022-09-03T11:53:39.077Z,99512.38
2022-09-03T11:56:20.348Z,99510.59
2022-09-03T11:59:09.640Z,99507.00
2022-09-03T12:01:56.027Z,99513.16
2022-09-03T12:04:39.287Z,99508.66
2022-09-03T12:07:44.398Z,99520.13
2022-09-03T12:10:51.239Z,99508.66
2022-09-03T12:13:45.595Z,99510.34
2022-09-03T12:16:48.776Z,99526.13
2022-09-03T12:19:50.904Z,99537.59
2022-09-03T12:22:25.347Z,99520.81
2022-09-03T12:25:22.232Z,99522.50
2022-09-03T12:28:17.577Z,99524.25
2022-09-03T12:30:53.534Z,99521.53
2022-09-03T12:33:34.554Z,99516.19
2022-09-03T12:36:05.739Z,99517.88
2022-09-03T12:39:10.308Z,99519.56
2022-09-03T12:42:02.727Z,99517.81
2022-09-03T12:44:42.213Z,99520.34
2022-09-03T12:47:41.272Z,99518.50
2022-09-03T12:50:13.225Z,99519.31
2022-09-03T12:52:47.069Z,99514.00
2022-09-03T12:55:33.598Z,99515.75
2022-09-03T12:58:13.392Z,99527.22
2022-09-03T13:00:54.483Z,99511.31
2022-09-03T13:03:31.099Z,99507.78
2022-09-03T13:06:11.369Z,99514.78
2022-09-03T13:08:49.160Z,99507.72
2022-09-03T13:11:24.594Z,99504.09
2022-09-03T13:13:58.381Z,99512.88
2022-09-03T13:17:07.358Z,99511.09
2022-09-03T13:19:48.591Z,99511.09
2022-09-03T13:22:26.706Z,99501.34
2022-09-03T13:25:13.181Z,99503.16
2022-09-03T13:27:52.903Z,99502.31
2022-09-03T13:30:24.421Z,99497.00
2022-09-03T13:33:03.002Z,99495.22
2022-09-03T13:35:39.843Z,99490.84
2022-09-03T13:38:25.242Z,99499.66
2022-09-03T13:40:58.360Z,99491.69
2022-09-03T13:43:36.627Z,99488.97
2022-09-03T13:46:10.243Z,99495.06
2022-09-03T13:49:02.190Z,99494.09
2022-09-03T13:51:37.534Z,99495.81
2022-09-03T13:54:30.972Z,99486.84
2022-09-03T13:57:10.702Z,99481.41
2022-09-03T13:59:51.870Z,99494.03
2022-09-03T14:02:31.296Z,99485.34
2022-09-03T14:05:11.406Z,99496.81
2022-09-03T14:07:55.427Z,99491.47
2022-09-03T14:10:42.773Z,99497.56
2022-09-03T14:13:26.030Z,99504.53
2022-09-03T14:16:07.410Z,99488.59
2022-09-03T14:18:48.201Z,99495.63
2022-09-03T14:21:24.045Z,99505.38
2022-09-03T14:24:03.738Z,99507.13
2022-09-03T14:26:39.398Z,99510.63
2022-09-03T14:29:18.058Z,99507.13
2022-09-03T14:32:14.026Z,99503.63
2022-09-03T14:35:02.866Z,99508.03
2022-09-03T14:38:36.119Z,99502.84
2022-09-03T14:41:23.730Z,99508.16
2022-09-03T14:44:29.535Z,99515.22
2022-09-03T14:47:13.289Z,99503.75
2022-09-03T14:50:17.789Z,99506.47
2022-09-03T14:53:18.388Z,99500.28
2022-09-03T14:56:11.476Z,99512.63
2022-09-03T14:59:13.517Z,99503.81
2022-09-03T15:01:45.375Z,99509.13
2022-09-03T15:04:53.197Z,99505.63
2022-09-03T15:07:35.497Z,99507.31
2022-09-03T15:10:19.257Z,99503.75
2022-09-03T15:12:53.656Z,99510.91
2022-09-03T15:15:27.894Z,99502.97
2022-09-03T15:18:05.794Z,99513.56
2022-09-03T15:20:55.676Z,99515.28
2022-09-03T15:23:57.775Z,99506.53
2022-09-03T15:26:59.267Z,99501.31
2022-09-03T15:29:41.184Z,99503.13
2022-09-03T15:32:22.092Z,99498.72
2022-09-03T15:35:05.919Z,99502.28
2022-09-03T15:37:43.826Z,99509.31
2022-09-03T15:40:30.123Z,99504.94
2022-09-03T15:43:08.934Z,99506.72
2022-09-03T15:46:30.430Z,99509.38
2022-09-03T15:49:04.404Z,99507.63
2022-09-03T15:51:37.690Z,99508.50
2022-09-03T15:54:17.912Z,99505.00
2022-09-03T15:56:56.596Z,99509.41
2022-09-03T15:59:42.569Z,99508.50
2022-09-03T16:02:18.631Z,99515.50
2022-09-03T16:05:06.179Z,99509.28
2022-09-03T16:08:06.063Z,99506.66
2022-09-03T16:10:47.021Z,99511.94
2022-09-03T16:13:37.603Z,99515.50
2022-09-03T16:16:10.808Z,99506.66
2022-09-03T16:18:57.891Z,99502.25
2022-09-03T16:21:32.658Z,99513.72
2022-09-03T16:24:06.738Z,99511.03
2022-09-03T16:26:39.258Z,99514.56
2022-09-03T16:29:16.240Z,99517.22
2022-09-03T16:32:17.901Z,99518.13
2022-09-03T16:35:04.997Z,99519.03
2022-09-03T16:37:46.600Z,99518.13
2022-09-03T16:40:26.758Z,99519.00
2022-09-03T16:43:39.489Z,99529.63
2022-09-03T16:46:40.550Z,99522.63
2022-09-03T16:50:20.809Z,99528.88
2022-09-03T16:53:30.144Z,99526.22
2022-09-03T16:56:28.238Z,99522.69
2022-09-03T17:00:31.354Z,99528.91
2022-09-03T17:03:26.180Z,99521.09
2022-09-03T17:06:51.589Z,99524.66
2022-09-03T17:09:58.368Z,99529.97
2022-09-03T17:12:42.962Z,99536.22
2022-09-03T17:15:44.866Z,99540.66
2022-09-03T17:19:11.828Z,99538.03
2022-09-03T17:22:18.727Z,99545.16
2022-09-03T17:25:08.727Z,99543.34
2022-09-03T17:29:31.235Z,99547.78
2022-09-03T17:31:30.114Z,99548.75
2022-09-03T17:34:09.879Z,99547.88
2022-09-03T17:37:10.077Z,99546.13
2022-09-03T17:40:30.245Z,99556.81
2022-09-03T17:43:37.484Z,99558.59
2022-09-03T17:51:01.799Z,99557.78
2022-09-03T17:53:55.515Z,99565.75
2022-09-03T17:57:12.464Z,99561.38
2022-09-03T18:01:55.923Z,99571.16
2022-09-03T18:04:03.366Z,99574.69
2022-09-03T18:07:25.157Z,99583.50
2022-09-03T18:10:43.951Z,99595.88
2022-09-03T18:13:45.926Z,99589.72
2022-09-03T18:16:48.659Z,99600.34
2022-09-03T18:20:02.668Z,99596.00
2022-09-03T18:23:00.591Z,99604.84
2022-09-03T18:26:16.177Z,99610.19
2022-09-03T18:29:24.028Z,99607.56
2022-09-03T18:32:40.703Z,99615.53
2022-09-03T18:35:53.807Z,99616.47
2022-09-03T18:39:31.681Z,99622.63
2022-09-03T18:50:00.164Z,99635.09
2022-09-03T18:53:08.091Z,99636.94
2022-09-03T18:56:15.805Z,99635.16
2022-09-03T18:59:35.543Z,99643.16
2022-09-03T19:03:00.961Z,99640.59
2022-09-03T19:06:17.297Z,99654.75
2022-09-03T19:09:19.169Z,99656.59
2022-09-03T19:12:21.847Z,99658.44
2022-09-03T19:15:17.958Z,99662.94
2022-09-03T19:18:29.845Z,99667.44
2022-09-03T19:21:26.077Z,99663.09
2022-09-03T19:24:20.118Z,99666.69
2022-09-03T19:27:49.994Z,99673.75
2022-09-03T19:30:29.223Z,99666.75
2022-09-03T19:33:29.954Z,99670.31
2022-09-03T19:36:28.014Z,99674.75
2022-09-03T19:39:32.228Z,99675.69
2022-09-03T19:42:30.856Z,99688.03
2022-09-03T19:45:28.636Z,99684.53
2022-09-03T19:48:27.780Z,99690.75
2022-09-03T19:51:26.447Z,99703.97
2022-09-03T19:54:15.077Z,99706.63
2022-09-03T19:57:04.584Z,99709.31
2022-09-03T19:59:56.254Z,99721.66
2022-09-03T20:02:42.964Z,99717.28
2022-09-03T20:05:35.845Z,99719.97
2022-09-03T20:08:22.823Z,99716.47
2022-09-03T20:10:54.943Z,99718.22
2022-09-03T20:13:25.368Z,99721.75
2022-09-03T20:16:03.001Z,99717.34
2022-09-03T20:18:43.916Z,99718.25
2022-09-03T20:21:20.650Z,99727.97
2022-09-03T20:23:59.395Z,99727.09
2022-09-03T20:26:45.191Z,99732.38
2022-09-03T20:29:39.161Z,99742.13
2022-09-03T20:32:15.083Z,99735.06
2022-09-03T20:34:51.367Z,99743.00
2022-09-03T20:37:30.121Z,99733.31
2022-09-03T20:40:18.066Z,99735.13
2022-09-03T20:43:33.294Z,99735.16
2022-09-03T20:46:31.048Z,99737.84
2022-09-03T20:49:09.404Z,99737.84
2022-09-03T20:51:44.194Z,99743.13
2022-09-03T20:54:15.799Z,99740.53
2022-09-03T20:57:05.796Z,99751.13
2022-09-03T20:59:48.241Z,99744.94
2022-09-03T21:02:29.257Z,99749.38
2022-09-03T21:05:12.381Z,99748.50
2022-09-03T21:07:56.365Z,99749.38
2022-09-03T21:10:33.795Z,99749.41
2022-09-03T21:13:16.054Z,99757.34
2022-09-03T21:15:57.185Z,99756.47
2022-09-03T21:18:38.298Z,99752.13
2022-09-03T21:21:18.140Z,99761.81
2022-09-03T21:23:51.358Z,99748.63
2022-09-03T21:26:26.083Z,99755.69
2022-09-03T21:29:04.678Z,99753.06
2022-09-03T21:31:39.430Z,99753.06
2022-09-03T21:34:18.626Z,99754.81
2022-09-03T21:36:49.213Z,99753.97
2022-09-03T21:39:27.737Z,99761.03
2022-09-03T21:42:04.752Z,99754.84
2022-09-03T21:44:50.502Z,99758.38
2022-09-03T21:47:21.325Z,99754.91
2022-09-03T21:50:14.414Z,99753.16
2022-09-03T21:52:53.554Z,99754.91
2022-09-03T21:55:32.851Z,99758.47
2022-09-03T21:58:20.384Z,99762.88
2022-09-03T22:00:54.152Z,99767.31
2022-09-03T22:03:22.976Z,99763.81
2022-09-03T22:06:02.166Z,99766.44
2022-09-03T22:08:37.263Z,99774.38
2022-09-03T22:11:13.361Z,99762.09
2022-09-03T22:13:50.509Z,99758.56
2022-09-03T22:16:24.698Z,99763.84
2022-09-03T22:18:55.466Z,99771.81
2022-09-03T22:21:35.964Z,99767.41
2022-09-03T22:24:23.319Z,99774.47
2022-09-03T22:26:59.215Z,99774.47
2022-09-03T22:29:42.062Z,99770.09
2022-09-03T22:32:25.595Z,99774.50
2022-09-03T22:35:19.221Z,99771.00
2022-09-03T22:38:04.120Z,99773.66
2022-09-03T22:40:40.952Z,99777.22
2022-09-03T22:43:35.237Z,99777.25
2022-09-03T22:46:10.181Z,99782.53
2022-09-03T22:49:02.661Z,99783.41
2022-09-03T22:51:48.384Z,99779.88
2022-09-03T22:54:35.483Z,99779.88
2022-09-03T22:57:06.077Z,99785.16
2022-09-03T22:59:40.356Z,99781.66
2022-09-03T23:02:16.968Z,99784.28
2022-09-03T23:04:55.986Z,99792.22
2022-09-03T23:07:35.017Z,99781.69
2022-09-03T23:10:10.876Z,99790.47
2022-09-03T23:12:46.242Z,99791.38
2022-09-03T23:15:20.718Z,99800.19
2022-09-03T23:17:56.025Z,99794.03
2022-09-03T23:20:27.630Z,99799.34
2022-09-03T23:23:04.008Z,99808.13
2022-09-03T23:25:37.243Z,99804.59
2022-09-03T23:28:12.578Z,99816.03
2022-09-03T23:30:41.752Z,99806.41
2022-09-03T23:33:10.423Z,99801.13
2022-09-03T23:35:50.220Z,99806.41
2022-09-03T23:38:29.126Z,99811.69
2022-09-03T23:41:04.632Z,99811.69
2022-09-03T23:44:05.459Z,99820.47
2022-09-03T23:46:43.355Z,99813.44
2022-09-03T23:49:34.433Z,99813.44
2022-09-03T23:52:33.902Z,99816.09
2022-09-03T23:55:20.943Z,99814.34
2022-09-03T23:58:02.461Z,99822.25
